createdAt,value
2019-01-14T00:00:27.909Z,984.87
2019-01-14T00:01:27.898Z,984.74
2019-01-14T00:02:27.888Z,984.80
2019-01-14T00:03:27.877Z,984.88
2019-01-14T00:04:27.867Z,984.85
2019-01-14T00:05:27.855Z,984.91
2019-01-14T00:06:27.845Z,984.88
2019-01-14T00:07:27.846Z,984.92
2019-01-14T00:08:27.827Z,984.95
2019-01-14T00:09:31.070Z,984.91
2019-01-14T00:10:27.802Z,984.98
2019-01-14T00:11:27.791Z,984.97
2019-01-14T00:12:27.782Z,984.94
2019-01-14T00:13:27.770Z,984.99
2019-01-14T00:14:27.760Z,985.02
2019-01-14T00:15:27.749Z,985.14
2019-01-14T00:16:27.738Z,985.23
2019-01-14T00:17:27.727Z,985.21
2019-01-14T00:18:27.717Z,985.18
2019-01-14T00:19:27.707Z,985.11
2019-01-14T00:20:27.697Z,985.31
2019-01-14T00:21:27.687Z,985.25
2019-01-14T00:22:27.675Z,985.39
2019-01-14T00:23:27.664Z,985.51
2019-01-14T00:24:27.654Z,985.45
2019-01-14T00:25:27.643Z,985.25
2019-01-14T00:26:27.631Z,985.45
2019-01-14T00:27:27.622Z,985.52
2019-01-14T00:28:27.613Z,985.60
2019-01-14T00:29:27.600Z,985.56
2019-01-14T00:30:27.588Z,985.56
2019-01-14T00:31:27.578Z,985.62
2019-01-14T00:32:27.570Z,985.56
2019-01-14T00:33:27.557Z,985.56
2019-01-14T00:34:27.555Z,985.77
2019-01-14T00:35:27.548Z,985.65
2019-01-14T00:36:27.526Z,985.80
2019-01-14T00:37:27.515Z,985.76
2019-01-14T00:38:27.503Z,985.65
2019-01-14T00:39:27.492Z,985.77
2019-01-14T00:40:27.488Z,985.81
2019-01-14T00:41:27.474Z,985.74
2019-01-14T00:42:27.461Z,985.70
2019-01-14T00:43:27.450Z,985.69
2019-01-14T00:44:27.439Z,985.68
2019-01-14T00:45:27.430Z,985.75
2019-01-14T00:46:27.421Z,985.89
2019-01-14T00:47:27.410Z,985.81
2019-01-14T00:48:27.397Z,985.81
2019-01-14T00:49:27.386Z,985.75
2019-01-14T00:50:27.375Z,985.71
2019-01-14T00:51:27.364Z,985.78
2019-01-14T00:52:27.354Z,985.87
2019-01-14T00:53:27.345Z,985.96
2019-01-14T00:54:27.335Z,986.00
2019-01-14T00:55:27.324Z,986.04
2019-01-14T00:56:27.312Z,986.09
2019-01-14T00:57:27.301Z,986.04
2019-01-14T00:58:27.291Z,986.05
2019-01-14T00:59:27.280Z,986.03
2019-01-14T01:00:27.269Z,986.04
2019-01-14T01:01:27.257Z,986.13
2019-01-14T01:02:27.247Z,986.21
2019-01-14T01:03:27.237Z,986.21
2019-01-14T01:04:27.230Z,986.31
2019-01-14T01:05:27.218Z,986.33
2019-01-14T01:06:27.205Z,986.46
2019-01-14T01:07:27.197Z,986.18
2019-01-14T01:08:27.185Z,986.32
2019-01-14T01:09:27.175Z,986.36
2019-01-14T01:10:27.164Z,986.38
2019-01-14T01:11:27.153Z,986.47
2019-01-14T01:12:27.140Z,986.40
2019-01-14T01:13:27.134Z,986.44
2019-01-14T01:14:27.121Z,986.43
2019-01-14T01:15:27.110Z,986.45
2019-01-14T01:16:27.098Z,986.59
2019-01-14T01:17:27.088Z,986.58
2019-01-14T01:18:27.077Z,986.66
2019-01-14T01:19:27.066Z,986.66
2019-01-14T01:20:27.055Z,986.53
2019-01-14T01:21:27.047Z,986.62
2019-01-14T01:22:27.035Z,986.56
2019-01-14T01:23:27.025Z,986.70
2019-01-14T01:24:27.014Z,986.78
2019-01-14T01:25:27.002Z,986.68
2019-01-14T01:26:26.992Z,986.67
2019-01-14T01:27:26.983Z,986.67
2019-01-14T01:28:26.969Z,986.80
2019-01-14T01:29:26.961Z,986.70
2019-01-14T01:30:26.949Z,986.72
2019-01-14T01:31:26.939Z,986.91
2019-01-14T01:32:26.927Z,986.87
2019-01-14T01:33:26.918Z,986.98
2019-01-14T01:34:26.910Z,986.84
2019-01-14T01:35:26.895Z,986.94
2019-01-14T01:36:31.833Z,987.01
2019-01-14T01:37:27.878Z,986.82
2019-01-14T01:38:26.866Z,987.02
2019-01-14T01:39:26.853Z,986.92
2019-01-14T01:40:26.842Z,987.09
2019-01-14T01:41:26.832Z,986.74
2019-01-14T01:42:26.826Z,987.10
2019-01-14T01:43:26.810Z,987.11
2019-01-14T01:44:26.800Z,987.24
2019-01-14T01:45:26.789Z,987.18
2019-01-14T01:46:26.780Z,987.13
2019-01-14T01:47:26.768Z,987.18
2019-01-14T01:48:26.759Z,987.38
2019-01-14T01:49:26.748Z,987.24
2019-01-14T01:50:26.741Z,987.33
2019-01-14T01:51:26.731Z,987.28
2019-01-14T01:52:26.714Z,987.48
2019-01-14T01:53:26.703Z,987.42
2019-01-14T01:54:26.693Z,987.44
2019-01-14T01:55:26.682Z,987.57
2019-01-14T01:56:26.674Z,987.61
2019-01-14T01:57:26.662Z,987.63
2019-01-14T01:58:26.660Z,987.76
2019-01-14T01:59:26.640Z,987.72
2019-01-14T02:00:26.631Z,987.78
2019-01-14T02:01:26.620Z,987.80
2019-01-14T02:02:26.609Z,987.82
2019-01-14T02:03:26.601Z,987.81
2019-01-14T02:04:26.589Z,987.81
2019-01-14T02:05:26.575Z,987.97
2019-01-14T02:06:26.566Z,987.94
2019-01-14T02:07:26.556Z,987.89
2019-01-14T02:08:26.547Z,987.90
2019-01-14T02:09:26.535Z,987.86
2019-01-14T02:10:26.526Z,987.87
2019-01-14T02:11:26.511Z,987.91
2019-01-14T02:12:26.501Z,987.99
2019-01-14T02:13:26.491Z,988.12
2019-01-14T02:14:26.482Z,988.07
2019-01-14T02:15:26.471Z,988.01
2019-01-14T02:16:26.459Z,987.97
2019-01-14T02:17:26.448Z,988.12
2019-01-14T02:18:26.437Z,988.02
2019-01-14T02:19:26.426Z,988.17
2019-01-14T02:20:26.417Z,988.20
2019-01-14T02:21:26.404Z,988.28
2019-01-14T02:22:26.396Z,988.24
2019-01-14T02:23:26.385Z,988.43
2019-01-14T02:24:26.374Z,988.30
2019-01-14T02:25:26.364Z,988.21
2019-01-14T02:26:26.355Z,988.40
2019-01-14T02:27:26.341Z,988.43
2019-01-14T02:28:26.331Z,988.37
2019-01-14T02:29:26.322Z,988.35
2019-01-14T02:30:26.312Z,988.48
2019-01-14T02:31:26.304Z,988.41
2019-01-14T02:32:26.293Z,988.39
2019-01-14T02:33:26.276Z,988.43
2019-01-14T02:34:26.266Z,988.47
2019-01-14T02:35:26.258Z,988.43
2019-01-14T02:36:26.245Z,988.45
2019-01-14T02:37:26.236Z,988.55
2019-01-14T02:38:26.228Z,988.45
2019-01-14T02:39:26.212Z,988.56
2019-01-14T02:40:26.205Z,988.44
2019-01-14T02:41:26.192Z,988.62
2019-01-14T02:42:26.181Z,988.48
2019-01-14T02:43:26.170Z,988.47
2019-01-14T02:44:26.160Z,988.55
2019-01-14T02:45:26.149Z,988.57
2019-01-14T02:46:26.139Z,988.63
2019-01-14T02:47:26.131Z,988.68
2019-01-14T02:48:26.117Z,988.65
2019-01-14T02:49:26.105Z,988.75
2019-01-14T02:50:26.095Z,988.77
2019-01-14T02:51:26.094Z,988.92
2019-01-14T02:52:26.073Z,988.92
2019-01-14T02:53:26.065Z,989.04
2019-01-14T02:54:26.058Z,989.01
2019-01-14T02:55:26.043Z,989.10
2019-01-14T02:56:26.031Z,989.18
2019-01-14T02:57:26.022Z,989.09
2019-01-14T02:58:27.868Z,989.11
2019-01-14T02:59:26.004Z,989.25
2019-01-14T03:00:25.991Z,989.13
2019-01-14T03:01:25.979Z,989.19
2019-01-14T03:02:25.968Z,989.20
2019-01-14T03:03:25.957Z,989.14
2019-01-14T03:04:25.945Z,989.32
2019-01-14T03:05:25.934Z,989.19
2019-01-14T03:06:25.930Z,989.11
2019-01-14T03:07:25.918Z,989.09
2019-01-14T03:08:25.905Z,989.51
2019-01-14T03:09:25.893Z,989.37
2019-01-14T03:10:25.882Z,989.40
2019-01-14T03:11:25.871Z,989.30
2019-01-14T03:12:25.861Z,989.55
2019-01-14T03:13:25.853Z,989.49
2019-01-14T03:14:25.838Z,989.59
2019-01-14T03:15:25.829Z,989.58
2019-01-14T03:16:25.817Z,989.56
2019-01-14T03:17:25.807Z,989.69
2019-01-14T03:18:25.807Z,989.55
2019-01-14T03:19:25.789Z,989.70
2019-01-14T03:20:25.775Z,989.76
2019-01-14T03:21:25.766Z,989.67
2019-01-14T03:22:25.754Z,989.65
2019-01-14T03:23:25.742Z,989.78
2019-01-14T03:24:25.734Z,989.79
2019-01-14T03:25:25.719Z,989.95
2019-01-14T03:26:25.710Z,989.94
2019-01-14T03:27:25.701Z,989.91
2019-01-14T03:28:25.690Z,989.96
2019-01-14T03:29:25.679Z,989.66
2019-01-14T03:30:25.669Z,990.00
2019-01-14T03:31:25.659Z,990.06
2019-01-14T03:32:25.654Z,990.05
2019-01-14T03:33:25.636Z,990.08
2019-01-14T03:34:25.625Z,990.12
2019-01-14T03:35:25.617Z,990.31
2019-01-14T03:36:25.602Z,990.03
2019-01-14T03:37:25.593Z,990.27
2019-01-14T03:38:25.585Z,990.30
2019-01-14T03:39:25.573Z,990.27
2019-01-14T03:40:25.561Z,990.30
2019-01-14T03:41:25.555Z,990.20
2019-01-14T03:42:25.539Z,990.36
2019-01-14T03:43:25.530Z,990.54
2019-01-14T03:44:25.518Z,990.50
2019-01-14T03:45:25.507Z,990.42
2019-01-14T03:46:25.496Z,990.37
2019-01-14T03:47:25.486Z,990.35
2019-01-14T03:48:25.476Z,990.36
2019-01-14T03:49:25.466Z,990.44
2019-01-14T03:50:25.455Z,990.50
2019-01-14T03:51:25.443Z,990.57
2019-01-14T03:52:25.437Z,990.59
2019-01-14T03:53:25.422Z,990.56
2019-01-14T03:54:25.414Z,990.62
2019-01-14T03:55:25.403Z,990.55
2019-01-14T03:56:25.390Z,990.52
2019-01-14T03:57:25.379Z,990.57
2019-01-14T03:58:25.818Z,990.64
2019-01-14T03:59:25.363Z,990.67
2019-01-14T04:00:25.350Z,990.68
2019-01-14T04:01:25.336Z,990.62
2019-01-14T04:02:25.326Z,990.72
2019-01-14T04:03:25.315Z,990.67
2019-01-14T04:04:25.302Z,990.69
2019-01-14T04:05:25.294Z,990.69
2019-01-14T04:06:25.285Z,990.75
2019-01-14T04:07:25.275Z,990.65
2019-01-14T04:08:25.262Z,990.75
2019-01-14T04:09:25.249Z,990.89
2019-01-14T04:10:25.241Z,990.83
2019-01-14T04:11:25.230Z,990.87
2019-01-14T04:12:25.227Z,990.96
2019-01-14T04:13:25.208Z,990.87
2019-01-14T04:14:25.198Z,990.95
2019-01-14T04:15:25.198Z,990.89
2019-01-14T04:16:25.178Z,990.92
2019-01-14T04:17:25.166Z,990.89
2019-01-14T04:18:25.157Z,990.98
2019-01-14T04:19:25.147Z,991.07
2019-01-14T04:20:25.133Z,990.98
2019-01-14T04:21:25.122Z,990.98
2019-01-14T04:22:25.112Z,991.09
2019-01-14T04:23:25.102Z,991.08
2019-01-14T04:24:25.094Z,991.10
2019-01-14T04:25:25.078Z,990.57
2019-01-14T04:26:25.069Z,991.22
2019-01-14T04:27:25.059Z,991.37
2019-01-14T04:28:25.046Z,991.23
2019-01-14T04:29:25.038Z,991.14
2019-01-14T04:30:25.027Z,991.19
2019-01-14T04:31:25.018Z,991.28
2019-01-14T04:32:25.006Z,991.21
2019-01-14T04:33:24.996Z,991.42
2019-01-14T04:34:24.988Z,991.24
2019-01-14T04:35:24.974Z,991.23
2019-01-14T04:36:24.964Z,991.25
2019-01-14T04:37:24.952Z,991.39
2019-01-14T04:38:24.941Z,991.32
2019-01-14T04:39:24.932Z,991.31
2019-01-14T04:40:24.918Z,991.25
2019-01-14T04:41:24.917Z,991.35
2019-01-14T04:42:24.899Z,991.45
2019-01-14T04:43:24.890Z,991.55
2019-01-14T04:44:24.877Z,991.45
2019-01-14T04:45:24.866Z,991.49
2019-01-14T04:46:24.858Z,991.58
2019-01-14T04:47:24.847Z,991.50
2019-01-14T04:48:24.834Z,991.58
2019-01-14T04:49:24.849Z,991.58
2019-01-14T04:50:24.814Z,991.68
2019-01-14T04:51:24.808Z,991.85
2019-01-14T04:52:24.793Z,991.75
2019-01-14T04:53:24.789Z,991.71
2019-01-14T04:54:24.771Z,991.91
2019-01-14T04:55:24.762Z,991.96
2019-01-14T04:56:24.750Z,991.97
2019-01-14T04:57:24.743Z,991.95
2019-01-14T04:58:24.729Z,991.99
2019-01-14T04:59:24.725Z,991.88
2019-01-14T05:00:24.710Z,991.88
2019-01-14T05:01:24.700Z,992.04
2019-01-14T05:02:24.686Z,991.97
2019-01-14T05:03:24.681Z,991.97
2019-01-14T05:04:24.666Z,992.02
2019-01-14T05:05:24.663Z,991.99
2019-01-14T05:06:24.647Z,992.07
2019-01-14T05:07:29.526Z,992.11
2019-01-14T05:08:25.620Z,992.08
2019-01-14T05:09:24.612Z,992.06
2019-01-14T05:10:24.602Z,992.00
2019-01-14T05:11:24.592Z,992.09
2019-01-14T05:12:24.584Z,992.06
2019-01-14T05:13:24.570Z,992.09
2019-01-14T05:14:24.562Z,992.16
2019-01-14T05:15:24.549Z,992.24
2019-01-14T05:16:24.539Z,992.32
2019-01-14T05:17:24.529Z,992.31
2019-01-14T05:18:24.517Z,992.31
2019-01-14T05:19:24.511Z,992.21
2019-01-14T05:20:24.498Z,992.29
2019-01-14T05:21:24.486Z,992.19
2019-01-14T05:22:24.477Z,992.29
2019-01-14T05:23:24.464Z,992.27
2019-01-14T05:24:24.456Z,992.17
2019-01-14T05:25:24.448Z,992.19
2019-01-14T05:26:24.433Z,992.35
2019-01-14T05:27:24.422Z,992.30
2019-01-14T05:28:24.411Z,992.28
2019-01-14T05:29:24.399Z,992.47
2019-01-14T05:30:24.389Z,992.44
2019-01-14T05:31:24.379Z,992.30
2019-01-14T05:32:24.368Z,992.40
2019-01-14T05:33:24.363Z,992.37
2019-01-14T05:34:24.351Z,992.31
2019-01-14T05:35:24.341Z,992.35
2019-01-14T05:36:24.326Z,992.26
2019-01-14T05:37:24.316Z,992.41
2019-01-14T05:38:24.306Z,992.33
2019-01-14T05:39:24.297Z,992.45
2019-01-14T05:40:24.291Z,992.41
2019-01-14T05:41:24.274Z,992.37
2019-01-14T05:42:24.263Z,992.43
2019-01-14T05:43:24.258Z,992.50
2019-01-14T05:44:24.245Z,992.41
2019-01-14T05:45:24.232Z,992.41
2019-01-14T05:46:24.221Z,992.42
2019-01-14T05:47:24.213Z,992.40
2019-01-14T05:48:24.201Z,992.35
2019-01-14T05:49:24.190Z,992.38
2019-01-14T05:50:24.184Z,992.37
2019-01-14T05:51:24.169Z,992.49
2019-01-14T05:52:24.158Z,992.36
2019-01-14T05:53:24.148Z,992.34
2019-01-14T05:54:24.140Z,992.39
2019-01-14T05:55:24.127Z,992.52
2019-01-14T05:56:24.116Z,992.45
2019-01-14T05:57:24.105Z,992.52
2019-01-14T05:58:24.098Z,992.42
2019-01-14T05:59:24.085Z,992.58
2019-01-14T06:00:24.075Z,992.43
2019-01-14T06:01:24.064Z,992.39
2019-01-14T06:02:24.051Z,992.62
2019-01-14T06:03:24.043Z,992.61
2019-01-14T06:04:24.034Z,992.61
2019-01-14T06:05:24.022Z,992.53
2019-01-14T06:06:24.009Z,992.51
2019-01-14T06:07:24.000Z,992.59
2019-01-14T06:08:24.005Z,992.58
2019-01-14T06:09:23.982Z,992.43
2019-01-14T06:10:23.969Z,992.59
2019-01-14T06:11:23.961Z,992.57
2019-01-14T06:12:23.954Z,992.68
2019-01-14T06:13:23.943Z,992.68
2019-01-14T06:14:23.941Z,992.62
2019-01-14T06:15:23.919Z,992.57
2019-01-14T06:16:23.914Z,992.58
2019-01-14T06:17:23.898Z,992.62
2019-01-14T06:18:23.886Z,992.60
2019-01-14T06:19:23.873Z,992.57
2019-01-14T06:20:23.861Z,992.60
2019-01-14T06:21:23.885Z,992.60
2019-01-14T06:22:23.842Z,992.65
2019-01-14T06:23:23.832Z,992.67
2019-01-14T06:24:23.906Z,992.69
2019-01-14T06:25:23.815Z,992.70
2019-01-14T06:26:23.801Z,992.71
2019-01-14T06:27:23.789Z,992.65
2019-01-14T06:28:23.814Z,992.62
2019-01-14T06:29:23.772Z,992.70
2019-01-14T06:30:23.758Z,992.71
2019-01-14T06:31:23.750Z,992.69
2019-01-14T06:32:23.736Z,992.73
2019-01-14T06:33:23.768Z,992.73
2019-01-14T06:34:23.717Z,992.85
2019-01-14T06:35:23.708Z,992.81
2019-01-14T06:36:23.694Z,992.82
2019-01-14T06:37:23.689Z,992.95
2019-01-14T06:38:23.673Z,992.90
2019-01-14T06:39:23.661Z,992.98
2019-01-14T06:40:23.653Z,993.04
2019-01-14T06:41:23.643Z,992.99
2019-01-14T06:42:23.631Z,993.09
2019-01-14T06:43:23.621Z,993.15
2019-01-14T06:44:23.608Z,993.20
2019-01-14T06:45:23.599Z,993.23
2019-01-14T06:46:23.589Z,993.09
2019-01-14T06:47:23.585Z,993.20
2019-01-14T06:48:23.568Z,993.02
2019-01-14T06:49:23.558Z,993.29
2019-01-14T06:50:23.545Z,993.21
2019-01-14T06:51:23.536Z,993.25
2019-01-14T06:52:23.529Z,993.13
2019-01-14T06:53:23.515Z,993.15
2019-01-14T06:54:23.505Z,993.38
2019-01-14T06:55:23.498Z,993.43
2019-01-14T06:56:23.484Z,993.48
2019-01-14T06:57:23.472Z,993.68
2019-01-14T06:58:23.460Z,993.77
2019-01-14T06:59:23.455Z,993.84
2019-01-14T07:00:23.441Z,993.98
2019-01-14T07:01:23.429Z,993.97
2019-01-14T07:02:23.420Z,994.07
2019-01-14T07:03:23.407Z,994.15
2019-01-14T07:04:23.402Z,994.01
2019-01-14T07:05:23.389Z,994.01
2019-01-14T07:06:23.376Z,994.06
2019-01-14T07:07:23.372Z,994.01
2019-01-14T07:08:23.355Z,994.08
2019-01-14T07:09:23.348Z,994.14
2019-01-14T07:10:23.334Z,994.20
2019-01-14T07:11:23.325Z,994.18
2019-01-14T07:12:23.315Z,994.09
2019-01-14T07:13:23.302Z,994.17
2019-01-14T07:14:23.292Z,994.14
2019-01-14T07:15:23.284Z,994.12
2019-01-14T07:16:23.275Z,994.18
2019-01-14T07:17:23.263Z,994.12
2019-01-14T07:18:23.252Z,994.27
2019-01-14T07:19:23.241Z,994.31
2019-01-14T07:20:23.231Z,994.37
2019-01-14T07:21:23.224Z,994.43
2019-01-14T07:22:23.211Z,994.41
2019-01-14T07:23:23.201Z,994.48
2019-01-14T07:24:23.190Z,994.53
2019-01-14T07:25:23.178Z,994.45
2019-01-14T07:26:23.166Z,994.49
2019-01-14T07:27:23.157Z,994.53
2019-01-14T07:28:23.144Z,994.53
2019-01-14T07:29:23.135Z,994.44
2019-01-14T07:30:23.129Z,994.49
2019-01-14T07:31:23.112Z,994.56
2019-01-14T07:32:23.103Z,994.54
2019-01-14T07:33:23.093Z,994.53
2019-01-14T07:34:23.085Z,994.56
2019-01-14T07:35:23.073Z,994.52
2019-01-14T07:36:23.061Z,994.59
2019-01-14T07:37:23.050Z,994.55
2019-01-14T07:38:23.041Z,994.58
2019-01-14T07:39:23.031Z,994.53
2019-01-14T07:40:23.022Z,994.62
2019-01-14T07:41:23.007Z,994.56
2019-01-14T07:42:22.997Z,994.61
2019-01-14T07:43:22.987Z,994.69
2019-01-14T07:44:22.978Z,994.61
2019-01-14T07:45:22.969Z,994.71
2019-01-14T07:46:22.955Z,994.63
2019-01-14T07:47:22.946Z,994.73
2019-01-14T07:48:22.935Z,994.66
2019-01-14T07:49:22.922Z,994.70
2019-01-14T07:50:22.914Z,994.63
2019-01-14T07:51:22.902Z,994.73
2019-01-14T07:52:22.891Z,994.74
2019-01-14T07:53:22.884Z,994.71
2019-01-14T07:54:22.871Z,994.82
2019-01-14T07:55:22.862Z,994.80
2019-01-14T07:56:22.848Z,994.72
2019-01-14T07:57:22.839Z,994.86
2019-01-14T07:58:22.836Z,994.89
2019-01-14T07:59:22.819Z,994.82
2019-01-14T08:00:22.809Z,994.94
2019-01-14T08:01:22.797Z,994.95
2019-01-14T08:02:22.786Z,994.86
2019-01-14T08:03:22.775Z,995.12
2019-01-14T08:04:22.767Z,994.98
2019-01-14T08:05:22.754Z,994.93
2019-01-14T08:06:22.745Z,995.11
2019-01-14T08:07:22.734Z,995.05
2019-01-14T08:08:22.723Z,995.08
2019-01-14T08:09:22.713Z,995.10
2019-01-14T08:10:22.702Z,995.10
2019-01-14T08:11:22.693Z,995.14
2019-01-14T08:12:22.682Z,995.14
2019-01-14T08:13:22.671Z,995.09
2019-01-14T08:14:22.661Z,995.20
2019-01-14T08:15:22.649Z,995.21
2019-01-14T08:16:22.643Z,995.24
2019-01-14T08:17:22.633Z,995.29
2019-01-14T08:18:22.619Z,995.24
2019-01-14T08:19:23.632Z,995.15
2019-01-14T08:20:22.599Z,995.27
2019-01-14T08:21:22.588Z,995.19
2019-01-14T08:22:22.577Z,995.21
2019-01-14T08:23:22.572Z,995.21
2019-01-14T08:24:22.554Z,995.28
2019-01-14T08:25:22.546Z,995.15
2019-01-14T08:26:22.535Z,995.32
2019-01-14T08:27:22.523Z,995.32
2019-01-14T08:28:22.513Z,995.23
2019-01-14T08:29:22.502Z,995.40
2019-01-14T08:30:22.492Z,995.24
2019-01-14T08:31:22.492Z,995.31
2019-01-14T08:32:22.472Z,995.34
2019-01-14T08:33:22.458Z,995.27
2019-01-14T08:34:22.451Z,995.39
2019-01-14T08:35:22.438Z,995.35
2019-01-14T08:36:22.426Z,995.30
2019-01-14T08:37:22.429Z,995.43
2019-01-14T08:38:22.411Z,995.42
2019-01-14T08:39:22.395Z,995.30
2019-01-14T08:40:22.387Z,995.41
2019-01-14T08:41:22.375Z,995.45
2019-01-14T08:42:22.365Z,995.34
2019-01-14T08:43:22.355Z,995.31
2019-01-14T08:44:22.368Z,995.49
2019-01-14T08:45:22.332Z,995.46
2019-01-14T08:46:22.322Z,995.54
2019-01-14T08:47:22.353Z,995.59
2019-01-14T08:48:22.299Z,995.55
2019-01-14T08:49:22.288Z,995.58
2019-01-14T08:50:22.288Z,995.59
2019-01-14T08:51:22.267Z,995.46
2019-01-14T08:52:22.260Z,995.47
2019-01-14T08:53:22.247Z,995.49
2019-01-14T08:54:22.237Z,995.52
2019-01-14T08:55:22.229Z,995.49
2019-01-14T08:56:22.216Z,995.54
2019-01-14T08:57:22.204Z,995.53
2019-01-14T08:58:22.198Z,995.58
2019-01-14T08:59:22.185Z,995.73
2019-01-14T09:00:22.175Z,995.68
2019-01-14T09:01:22.163Z,995.76
2019-01-14T09:02:22.153Z,995.78
2019-01-14T09:03:22.141Z,995.65
2019-01-14T09:04:24.313Z,995.74
2019-01-14T09:05:22.124Z,995.79
2019-01-14T09:06:22.112Z,995.78
2019-01-14T09:07:22.099Z,995.89
2019-01-14T09:08:28.483Z,995.81
2019-01-14T09:09:23.077Z,995.86
2019-01-14T09:10:22.064Z,995.79
2019-01-14T09:11:22.056Z,995.87
2019-01-14T09:12:22.049Z,995.87
2019-01-14T09:13:22.047Z,995.83
2019-01-14T09:14:22.024Z,995.83
2019-01-14T09:15:22.012Z,995.79
2019-01-14T09:16:22.002Z,995.89
2019-01-14T09:17:21.995Z,995.87
2019-01-14T09:18:21.979Z,995.98
2019-01-14T09:19:21.973Z,995.92
2019-01-14T09:20:21.961Z,995.90
2019-01-14T09:21:21.948Z,995.91
2019-01-14T09:22:21.938Z,995.97
2019-01-14T09:23:21.927Z,996.03
2019-01-14T09:24:21.916Z,995.78
2019-01-14T09:25:21.907Z,995.96
2019-01-14T09:26:21.896Z,995.85
2019-01-14T09:27:21.885Z,995.99
2019-01-14T09:28:21.874Z,995.97
2019-01-14T09:29:21.863Z,996.03
2019-01-14T09:30:21.855Z,996.07
2019-01-14T09:31:21.848Z,996.08
2019-01-14T09:32:21.830Z,996.32
2019-01-14T09:33:21.836Z,996.11
2019-01-14T09:34:21.809Z,996.03
2019-01-14T09:35:21.799Z,996.11
2019-01-14T09:36:21.806Z,996.18
2019-01-14T09:37:21.785Z,996.08
2019-01-14T09:38:21.768Z,996.12
2019-01-14T09:39:21.757Z,996.18
2019-01-14T09:40:21.750Z,996.19
2019-01-14T09:41:21.741Z,996.12
2019-01-14T09:42:21.726Z,996.27
2019-01-14T09:43:21.718Z,996.37
2019-01-14T09:44:21.704Z,996.27
2019-01-14T09:45:21.697Z,996.21
2019-01-14T09:46:21.682Z,996.13
2019-01-14T09:47:21.674Z,996.15
2019-01-14T09:48:21.660Z,996.18
2019-01-14T09:49:21.650Z,996.19
2019-01-14T09:50:21.642Z,996.24
2019-01-14T09:51:21.631Z,996.15
2019-01-14T09:52:21.620Z,996.26
2019-01-14T09:53:21.608Z,996.18
2019-01-14T09:54:21.596Z,996.19
2019-01-14T09:55:21.592Z,996.26
2019-01-14T09:56:21.575Z,996.33
2019-01-14T09:57:21.565Z,996.28
2019-01-14T09:58:21.555Z,996.25
2019-01-14T09:59:21.552Z,996.33
2019-01-14T10:00:21.532Z,996.30
2019-01-14T10:01:21.522Z,996.20
2019-01-14T10:02:21.512Z,996.22
2019-01-14T10:03:21.500Z,996.15
2019-01-14T10:04:21.490Z,996.15
2019-01-14T10:05:21.479Z,996.13
2019-01-14T10:06:21.469Z,996.33
2019-01-14T10:07:21.459Z,996.24
2019-01-14T10:08:21.447Z,996.25
2019-01-14T10:09:21.438Z,996.32
2019-01-14T10:10:21.428Z,996.26
2019-01-14T10:11:21.416Z,996.28
2019-01-14T10:12:21.411Z,996.31
2019-01-14T10:13:21.396Z,996.31
2019-01-14T10:14:21.386Z,996.16
2019-01-14T10:15:21.375Z,996.14
2019-01-14T10:16:21.362Z,996.17
2019-01-14T10:17:21.353Z,996.17
2019-01-14T10:18:21.342Z,996.07
2019-01-14T10:19:21.330Z,996.16
2019-01-14T10:20:21.325Z,996.20
2019-01-14T10:21:21.308Z,996.04
2019-01-14T10:22:21.307Z,996.22
2019-01-14T10:23:21.289Z,996.17
2019-01-14T10:24:21.281Z,996.23
2019-01-14T10:25:21.268Z,996.30
2019-01-14T10:26:21.255Z,996.16
2019-01-14T10:27:21.243Z,996.20
2019-01-14T10:28:21.236Z,996.05
2019-01-14T10:29:21.223Z,996.25
2019-01-14T10:30:21.211Z,996.00
2019-01-14T10:31:21.205Z,996.04
2019-01-14T10:32:21.191Z,996.06
2019-01-14T10:33:21.186Z,996.10
2019-01-14T10:34:21.171Z,996.05
2019-01-14T10:35:21.193Z,995.98
2019-01-14T10:36:21.151Z,996.28
2019-01-14T10:37:22.871Z,996.10
2019-01-14T10:38:21.126Z,996.38
2019-01-14T10:39:21.116Z,995.96
2019-01-14T10:40:21.108Z,996.03
2019-01-14T10:41:21.094Z,996.06
2019-01-14T10:42:21.084Z,996.15
2019-01-14T10:43:21.074Z,996.31
2019-01-14T10:44:21.062Z,996.26
2019-01-14T10:45:21.054Z,996.34
2019-01-14T10:46:21.042Z,996.22
2019-01-14T10:47:21.030Z,996.26
2019-01-14T10:48:21.021Z,996.16
2019-01-14T10:49:21.028Z,996.04
2019-01-14T10:50:20.998Z,996.34
2019-01-14T10:51:20.988Z,996.20
2019-01-14T10:52:20.977Z,996.20
2019-01-14T10:53:20.966Z,996.25
2019-01-14T10:54:20.956Z,995.94
2019-01-14T10:55:20.944Z,996.12
2019-01-14T10:56:20.935Z,995.97
2019-01-14T10:57:21.804Z,996.03
2019-01-14T10:58:20.913Z,996.04
2019-01-14T10:59:20.903Z,996.16
2019-01-14T11:00:20.892Z,996.12
2019-01-14T11:01:20.879Z,996.10
2019-01-14T11:02:20.869Z,995.98
2019-01-14T11:03:20.860Z,996.04
2019-01-14T11:04:20.851Z,995.99
2019-01-14T11:05:20.852Z,996.20
2019-01-14T11:06:20.829Z,996.26
2019-01-14T11:07:20.816Z,996.09
2019-01-14T11:08:20.806Z,996.35
2019-01-14T11:09:20.795Z,996.34
2019-01-14T11:10:20.784Z,996.30
2019-01-14T11:11:20.779Z,996.07
2019-01-14T11:12:20.763Z,996.12
2019-01-14T11:13:20.756Z,996.13
2019-01-14T11:14:20.742Z,996.20
2019-01-14T11:15:20.732Z,996.32
2019-01-14T11:16:20.720Z,996.46
2019-01-14T11:17:20.717Z,996.42
2019-01-14T11:18:20.698Z,996.36
2019-01-14T11:19:20.693Z,996.25
2019-01-14T11:20:20.676Z,996.32
2019-01-14T11:21:20.667Z,996.38
2019-01-14T11:22:20.657Z,996.43
2019-01-14T11:23:20.646Z,996.45
2019-01-14T11:24:20.638Z,996.41
2019-01-14T11:25:20.632Z,996.38
2019-01-14T11:26:20.613Z,996.39
2019-01-14T11:27:20.603Z,996.44
2019-01-14T11:28:20.591Z,996.43
2019-01-14T11:29:20.581Z,996.34
2019-01-14T11:30:20.570Z,996.37
2019-01-14T11:31:20.559Z,996.48
2019-01-14T11:32:20.548Z,996.54
2019-01-14T11:33:20.539Z,996.60
2019-01-14T11:34:20.531Z,996.38
2019-01-14T11:35:20.515Z,996.58
2019-01-14T11:36:20.506Z,996.51
2019-01-14T11:37:20.494Z,996.66
2019-01-14T11:38:20.486Z,996.54
2019-01-14T11:39:20.474Z,996.51
2019-01-14T11:40:20.462Z,996.59
2019-01-14T11:41:20.454Z,996.55
2019-01-14T11:42:20.443Z,996.60
2019-01-14T11:43:20.433Z,996.67
2019-01-14T11:44:20.421Z,996.59
2019-01-14T11:45:20.465Z,996.55
2019-01-14T11:46:20.401Z,996.49
2019-01-14T11:47:20.394Z,996.57
2019-01-14T11:48:20.379Z,996.72
2019-01-14T11:49:20.367Z,996.61
2019-01-14T11:50:20.355Z,996.68
2019-01-14T11:51:20.346Z,996.66
2019-01-14T11:52:20.338Z,996.70
2019-01-14T11:53:20.327Z,996.61
2019-01-14T11:54:20.312Z,996.65
2019-01-14T11:55:20.302Z,996.65
2019-01-14T11:56:20.295Z,996.83
2019-01-14T11:57:20.282Z,996.90
2019-01-14T11:58:20.278Z,996.97
2019-01-14T11:59:20.263Z,996.85
2019-01-14T12:00:20.249Z,996.94
2019-01-14T12:01:20.238Z,996.98
2019-01-14T12:02:20.227Z,996.98
2019-01-14T12:03:20.217Z,997.08
2019-01-14T12:04:20.214Z,997.08
2019-01-14T12:05:20.196Z,997.04
2019-01-14T12:06:20.185Z,997.09
2019-01-14T12:07:20.177Z,997.10
2019-01-14T12:08:21.109Z,997.10
2019-01-14T12:09:20.152Z,997.07
2019-01-14T12:10:20.142Z,997.10
2019-01-14T12:11:20.133Z,997.03
2019-01-14T12:12:20.121Z,997.07
2019-01-14T12:13:20.112Z,997.21
2019-01-14T12:14:20.098Z,997.03
2019-01-14T12:15:20.089Z,997.11
2019-01-14T12:16:20.078Z,996.88
2019-01-14T12:17:20.069Z,997.09
2019-01-14T12:18:20.055Z,996.91
2019-01-14T12:19:20.050Z,997.02
2019-01-14T12:20:20.036Z,997.19
2019-01-14T12:21:20.026Z,997.20
2019-01-14T12:22:20.015Z,997.10
2019-01-14T12:23:20.004Z,997.02
2019-01-14T12:24:19.996Z,997.12
2019-01-14T12:25:20.111Z,997.16
2019-01-14T12:26:19.972Z,997.08
2019-01-14T12:27:19.962Z,997.07
2019-01-14T12:28:19.954Z,996.96